createdAt,value
2023-04-17T00:02:25.623Z,102767.66
2023-04-17T00:04:53.675Z,102767.63
2023-04-17T00:07:24.151Z,102766.78
2023-04-17T00:09:50.974Z,102775.44
2023-04-17T00:12:17.585Z,102762.50
2023-04-17T00:14:44.537Z,102766.78
2023-04-17T00:17:11.055Z,102766.03
2023-04-17T00:19:37.478Z,102769.53
2023-04-17T00:22:03.878Z,102775.63
2023-04-17T00:24:30.479Z,102771.28
2023-04-17T00:26:57.275Z,102774.72
2023-04-17T00:29:23.966Z,102776.50
2023-04-17T00:31:50.574Z,102778.22
2023-04-17T00:34:17.005Z,102789.53
2023-04-17T00:36:43.419Z,102781.75
2023-04-17T00:39:10.092Z,102776.59
2023-04-17T00:41:36.729Z,102775.75
2023-04-17T00:44:03.157Z,102784.41
2023-04-17T00:46:30.647Z,102772.31
2023-04-17T00:48:57.411Z,102765.41
2023-04-17T00:51:23.933Z,102764.59
2023-04-17T00:53:50.422Z,102763.78
2023-04-17T00:56:16.898Z,102768.97
2023-04-17T00:58:43.944Z,102768.94
2023-04-17T01:01:10.886Z,102771.53
2023-04-17T01:03:37.651Z,102768.03
2023-04-17T01:06:04.329Z,102771.47
2023-04-17T01:08:42.645Z,102769.78
2023-04-17T01:11:10.235Z,102769.81
2023-04-17T01:13:49.786Z,102775.06
2023-04-17T01:16:16.399Z,102781.13
2023-04-17T01:18:43.682Z,102780.25
2023-04-17T01:23:54.651Z,102782.88
2023-04-17T01:26:23.360Z,102780.31
2023-04-17T01:28:54.761Z,102773.38
2023-04-17T01:31:21.564Z,102777.75
2023-04-17T01:33:49.205Z,102777.78
2023-04-17T01:36:15.959Z,102781.25
2023-04-17T01:38:42.535Z,102778.66
2023-04-17T01:41:12.057Z,102776.94
2023-04-17T01:43:43.744Z,102781.31
2023-04-17T01:46:10.599Z,102789.97
2023-04-17T01:48:37.316Z,102782.22
2023-04-17T01:51:04.306Z,102786.56
2023-04-17T01:53:31.919Z,102787.44
2023-04-17T01:55:58.842Z,102787.41
2023-04-17T01:58:25.346Z,102786.63
2023-04-17T02:00:52.026Z,102783.19
2023-04-17T02:03:19.227Z,102785.78
2023-04-17T02:05:47.352Z,102797.00
2023-04-17T02:08:14.362Z,102791.78
2023-04-17T02:10:43.749Z,102784.88
2023-04-17T02:13:10.925Z,102790.03
2023-04-17T02:15:37.918Z,102784.88
2023-04-17T02:18:08.345Z,102787.50
2023-04-17T02:20:35.994Z,102796.19
2023-04-17T02:23:04.501Z,102792.78
2023-04-17T02:25:31.008Z,102793.59
2023-04-17T02:27:57.604Z,102785.78
2023-04-17T02:30:24.847Z,102784.91
2023-04-17T02:32:53.014Z,102782.34
2023-04-17T02:35:20.945Z,102783.22
2023-04-17T02:37:47.895Z,102781.44
2023-04-17T02:40:14.964Z,102777.97
2023-04-17T02:42:41.483Z,102781.47
2023-04-17T02:45:09.100Z,102777.97
2023-04-17T02:47:35.726Z,102782.34
2023-04-17T02:50:02.385Z,102782.34
2023-04-17T02:52:30.217Z,102785.81
2023-04-17T02:54:57.271Z,102784.94
2023-04-17T02:57:24.486Z,102785.78
2023-04-17T02:59:51.410Z,102784.06
2023-04-17T03:02:22.015Z,102785.81
2023-04-17T03:04:50.421Z,102782.34
2023-04-17T03:07:18.753Z,102784.91
2023-04-17T03:09:48.580Z,102786.66
2023-04-17T03:12:16.609Z,102791.88
2023-04-17T03:14:43.436Z,102790.19
2023-04-17T03:17:11.787Z,102791.06
2023-04-17T03:19:38.223Z,102792.81
2023-04-17T03:22:05.065Z,102793.66
2023-04-17T03:24:31.793Z,102790.25
2023-04-17T03:26:59.664Z,102782.44
2023-04-17T03:29:26.256Z,102776.44
2023-04-17T03:31:52.810Z,102787.66
2023-04-17T03:34:22.359Z,102789.38
2023-04-17T03:36:49.196Z,102785.91
2023-04-17T03:39:15.917Z,102791.06
2023-04-17T03:41:42.372Z,102796.25
2023-04-17T03:44:09.866Z,102791.09
2023-04-17T03:46:36.430Z,102789.41
2023-04-17T03:49:02.893Z,102796.38
2023-04-17T03:51:29.470Z,102792.97
2023-04-17T03:53:56.042Z,102792.09
2023-04-17T03:56:22.580Z,102792.97
2023-04-17T03:58:49.068Z,102796.41
2023-04-17T04:01:15.878Z,102799.88
2023-04-17T04:03:42.719Z,102791.25
2023-04-17T04:06:09.663Z,102795.59
2023-04-17T04:08:36.122Z,102793.00
2023-04-17T04:11:03.207Z,102793.00
2023-04-17T04:13:29.678Z,102796.41
2023-04-17T04:15:56.191Z,102787.78
2023-04-17T04:18:22.776Z,102793.84
2023-04-17T04:20:49.204Z,102793.00
2023-04-17T04:23:16.845Z,102793.00
2023-04-17T04:25:43.626Z,102796.47
2023-04-17T04:28:10.701Z,102795.59
2023-04-17T04:30:38.809Z,102799.06
2023-04-17T04:33:06.048Z,102799.06
2023-04-17T04:35:32.745Z,102798.22
2023-04-17T04:38:02.438Z,102799.06
2023-04-17T04:40:30.796Z,102800.81
2023-04-17T04:42:57.306Z,102802.56
2023-04-17T04:45:23.980Z,102804.25
2023-04-17T04:47:50.699Z,102806.84
2023-04-17T04:50:17.660Z,102810.31
2023-04-17T04:52:44.149Z,102809.44
2023-04-17T04:55:10.609Z,102804.22
2023-04-17T04:57:37.031Z,102815.47
2023-04-17T05:00:06.569Z,102814.59
2023-04-17T05:02:33.302Z,102810.31
2023-04-17T05:05:00.172Z,102812.91
2023-04-17T05:07:27.208Z,102813.78
2023-04-17T05:09:53.636Z,102820.72
2023-04-17T05:12:20.069Z,102824.16
2023-04-17T05:14:47.876Z,102825.91
2023-04-17T05:17:14.713Z,102823.31
2023-04-17T05:19:41.140Z,102826.75
2023-04-17T05:22:07.611Z,102833.66
2023-04-17T05:24:34.081Z,102834.53
2023-04-17T05:27:02.073Z,102833.72
2023-04-17T05:29:28.642Z,102832.88
2023-04-17T05:31:55.228Z,102836.31
2023-04-17T05:34:21.725Z,102839.78
2023-04-17T05:36:48.356Z,102835.47
2023-04-17T05:39:14.888Z,102840.66
2023-04-17T05:41:41.432Z,102838.91
2023-04-17T05:44:08.348Z,102830.31
2023-04-17T05:46:34.849Z,102838.06
2023-04-17T05:49:01.272Z,102834.59
2023-04-17T05:51:27.730Z,102837.19
2023-04-17T05:53:54.186Z,102838.88
2023-04-17T05:56:21.148Z,102839.72
2023-04-17T05:58:47.606Z,102838.81
2023-04-17T06:01:17.762Z,102841.41
2023-04-17T06:03:44.409Z,102847.47
2023-04-17T06:06:11.411Z,102844.88
2023-04-17T06:08:37.856Z,102851.75
2023-04-17T06:11:04.491Z,102848.28
2023-04-17T06:13:31.077Z,102852.66
2023-04-17T06:15:57.629Z,102856.13
2023-04-17T06:18:24.146Z,102863.06
2023-04-17T06:20:50.904Z,102864.81
2023-04-17T06:23:17.508Z,102865.69
2023-04-17T06:25:44.014Z,102876.91
2023-04-17T06:28:10.654Z,102867.38
2023-04-17T06:30:37.948Z,102873.41
2023-04-17T06:33:04.583Z,102866.44
2023-04-17T06:35:31.149Z,102869.91
2023-04-17T06:37:58.295Z,102874.25
2023-04-17T06:40:24.759Z,102883.78
2023-04-17T06:42:51.360Z,102884.69
2023-04-17T06:45:17.972Z,102896.78
2023-04-17T06:47:46.501Z,102893.38
2023-04-17T06:50:13.119Z,102900.31
2023-04-17T06:52:39.574Z,102902.03
2023-04-17T06:55:06.572Z,102899.50
2023-04-17T06:57:34.102Z,102896.91
2023-04-17T07:00:00.684Z,102906.44
2023-04-17T07:02:27.542Z,102901.19
2023-04-17T07:04:55.132Z,102902.81
2023-04-17T07:07:21.716Z,102908.81
2023-04-17T07:09:48.358Z,102915.63
2023-04-17T07:12:17.846Z,102917.38
2023-04-17T07:14:44.348Z,102919.06
2023-04-17T07:17:11.057Z,102915.53
2023-04-17T07:19:37.551Z,102919.03
2023-04-17T07:22:05.503Z,102920.75
2023-04-17T07:24:35.727Z,102927.69
2023-04-17T07:27:03.405Z,102922.47
2023-04-17T07:29:30.664Z,102917.22
2023-04-17T07:31:57.240Z,102932.81
2023-04-17T07:34:25.239Z,102925.88
2023-04-17T07:36:54.543Z,102922.41
2023-04-17T07:39:21.062Z,102918.88
2023-04-17T07:41:48.414Z,102926.59
2023-04-17T07:44:14.907Z,102918.81
2023-04-17T07:46:43.059Z,102924.00
2023-04-17T07:49:12.058Z,102924.84
2023-04-17T07:51:41.122Z,102926.59
2023-04-17T07:54:07.767Z,102930.00
2023-04-17T07:56:34.660Z,102927.38
2023-04-17T07:59:01.200Z,102929.16
2023-04-17T08:01:27.738Z,102932.59
2023-04-17T08:03:55.538Z,102930.81
2023-04-17T08:06:22.228Z,102934.28
2023-04-17T08:08:48.670Z,102932.47
2023-04-17T08:11:15.452Z,102935.03
2023-04-17T08:13:42.131Z,102932.41
2023-04-17T08:16:09.970Z,102936.69
2023-04-17T08:18:37.869Z,102936.69
2023-04-17T08:21:04.464Z,102940.09
2023-04-17T08:23:31.021Z,102927.06
2023-04-17T08:25:57.742Z,102935.69
2023-04-17T08:28:30.384Z,102937.38
2023-04-17T08:30:57.281Z,102939.94
2023-04-17T08:33:23.857Z,102937.38
2023-04-17T08:35:51.957Z,102946.81
2023-04-17T08:38:18.512Z,102947.66
2023-04-17T08:40:52.009Z,102942.44
2023-04-17T08:43:20.795Z,102941.47
2023-04-17T08:45:55.139Z,102942.25
2023-04-17T08:48:22.899Z,102943.03
2023-04-17T08:50:51.036Z,102942.13
2023-04-17T08:53:18.613Z,102940.31
2023-04-17T08:55:45.891Z,102939.31
2023-04-17T08:58:13.294Z,102943.50
2023-04-17T09:00:41.557Z,102943.31
2023-04-17T09:03:11.157Z,102932.81
2023-04-17T09:05:39.933Z,102940.47
2023-04-17T09:08:16.568Z,102942.75
2023-04-17T09:10:45.935Z,102937.13
2023-04-17T09:13:24.935Z,102939.25
2023-04-17T09:16:25.770Z,102932.69
2023-04-17T09:19:05.277Z,102929.78
2023-04-17T09:21:31.747Z,102930.66
2023-04-17T09:23:59.508Z,102944.72
2023-04-17T09:26:27.672Z,102942.41
2023-04-17T09:29:12.420Z,102948.78
2023-04-17T09:31:43.412Z,102946.31
2023-04-17T09:34:12.172Z,102948.88
2023-04-17T09:36:41.613Z,102949.72
2023-04-17T09:39:28.408Z,102945.34
2023-04-17T09:42:03.944Z,102935.66
2023-04-17T09:44:31.198Z,102950.44
2023-04-17T09:46:58.857Z,102949.47
2023-04-17T09:49:43.436Z,102941.66
2023-04-17T09:52:10.397Z,102946.19
2023-04-17T09:54:38.153Z,102946.97
2023-04-17T09:57:09.802Z,102951.13
2023-04-17T09:59:45.593Z,102951.06
2023-04-17T10:02:17.771Z,102948.44
2023-04-17T10:04:46.950Z,102949.38
2023-04-17T10:07:14.103Z,102954.41
2023-04-17T10:09:42.023Z,102950.78
2023-04-17T10:12:14.739Z,102949.91
2023-04-17T10:14:44.287Z,102949.06
2023-04-17T10:17:28.758Z,102950.72
2023-04-17T10:19:55.921Z,102950.59
2023-04-17T10:22:24.083Z,102939.91
2023-04-17T10:24:52.708Z,102946.56
2023-04-17T10:27:28.343Z,102946.34
2023-04-17T10:29:59.593Z,102949.69
2023-04-17T10:32:30.368Z,102941.66
2023-04-17T10:35:01.902Z,102942.34
2023-04-17T10:37:46.869Z,102942.00
2023-04-17T10:40:24.419Z,102944.97
2023-04-17T10:43:23.005Z,102932.97
2023-04-17T10:46:05.093Z,102934.38
2023-04-17T10:48:42.359Z,102920.88
2023-04-17T10:51:24.193Z,102926.59
2023-04-17T10:53:55.512Z,102917.59
2023-04-17T10:56:30.837Z,102914.72
2023-04-17T10:59:02.064Z,102916.09
2023-04-17T11:01:31.985Z,102910.44
2023-04-17T11:04:01.840Z,102915.56
2023-04-17T11:06:31.574Z,102910.72
2023-04-17T11:09:00.822Z,102914.78
2023-04-17T11:11:40.404Z,102905.41
2023-04-17T11:14:14.357Z,102904.19
2023-04-17T11:16:43.046Z,102905.97
2023-04-17T11:19:11.300Z,102903.13
2023-04-17T11:21:48.048Z,102904.69
2023-04-17T11:24:22.636Z,102903.69
2023-04-17T11:26:50.001Z,102902.75
2023-04-17T11:29:17.565Z,102901.28
2023-04-17T11:31:48.681Z,102903.22
2023-04-17T11:34:16.258Z,102905.84
2023-04-17T11:37:00.217Z,102897.03
2023-04-17T11:39:29.768Z,102884.38
2023-04-17T11:41:59.063Z,102888.31
2023-04-17T11:44:26.258Z,102880.94
2023-04-17T11:46:54.319Z,102876.38
2023-04-17T11:49:26.269Z,102871.81
2023-04-17T11:51:53.820Z,102873.22
2023-04-17T11:54:37.566Z,102868.91
2023-04-17T11:57:06.778Z,102876.47
2023-04-17T11:59:38.068Z,102871.97
2023-04-17T12:02:07.487Z,102881.16
2023-04-17T12:04:36.605Z,102875.78
2023-04-17T12:07:04.801Z,102884.63
2023-04-17T12:09:32.458Z,102870.22
2023-04-17T12:12:05.432Z,102876.34
2023-04-17T12:14:32.392Z,102878.59
2023-04-17T12:16:59.373Z,102876.31
2023-04-17T12:19:27.295Z,102876.63
2023-04-17T12:21:54.678Z,102876.88
2023-04-17T12:24:24.085Z,102876.56
2023-04-17T12:26:51.717Z,102877.09
2023-04-17T12:29:20.399Z,102874.34
2023-04-17T12:31:51.158Z,102880.81
2023-04-17T12:34:17.688Z,102878.13
2023-04-17T12:36:44.751Z,102878.41
2023-04-17T12:39:12.963Z,102882.38
2023-04-17T12:41:39.558Z,102881.63
2023-04-17T12:44:06.226Z,102885.91
2023-04-17T12:46:32.812Z,102886.03
2023-04-17T12:48:59.379Z,102877.72
2023-04-17T12:51:29.728Z,102886.81
2023-04-17T12:53:56.355Z,102885.97
2023-04-17T12:56:23.260Z,102881.94
2023-04-17T12:58:49.953Z,102880.84
2023-04-17T13:01:16.602Z,102873.13
2023-04-17T13:03:43.319Z,102880.16
2023-04-17T13:06:10.250Z,102877.38
2023-04-17T13:08:36.680Z,102876.16
2023-04-17T13:11:03.973Z,102871.16
2023-04-17T13:13:30.600Z,102882.81
2023-04-17T13:15:57.059Z,102868.94
2023-04-17T13:18:23.545Z,102867.94
2023-04-17T13:20:50.084Z,102866.13
2023-04-17T13:23:16.601Z,102871.91
2023-04-17T13:25:43.052Z,102869.69
2023-04-17T13:28:09.491Z,102862.72
2023-04-17T13:30:37.344Z,102863.03
2023-04-17T13:33:04.192Z,102859.75
2023-04-17T13:35:30.931Z,102860.75
2023-04-17T13:38:00.884Z,102853.16
2023-04-17T13:40:27.711Z,102847.28
2023-04-17T13:42:54.643Z,102853.56
2023-04-17T13:45:21.341Z,102858.19
2023-04-17T13:47:47.943Z,102841.66
2023-04-17T13:50:14.522Z,102841.75
2023-04-17T13:52:40.951Z,102841.03
2023-04-17T13:55:11.782Z,102840.16
2023-04-17T13:57:38.568Z,102837.63
2023-04-17T14:00:06.361Z,102836.47
2023-04-17T14:02:33.116Z,102832.38
2023-04-17T14:05:00.258Z,102828.63
2023-04-17T14:07:27.529Z,102824.59
2023-04-17T14:09:54.174Z,102818.22
2023-04-17T14:12:21.766Z,102822.34
2023-04-17T14:14:48.304Z,102818.22
2023-04-17T14:17:14.882Z,102827.44
2023-04-17T14:19:41.417Z,102822.53
2023-04-17T14:22:07.982Z,102818.59
2023-04-17T14:24:34.464Z,102816.44
2023-04-17T14:27:01.947Z,102826.25
2023-04-17T14:29:28.542Z,102818.00
2023-04-17T14:31:55.225Z,102821.88
2023-04-17T14:34:21.772Z,102809.97
2023-04-17T14:36:48.787Z,102814.63
2023-04-17T14:39:15.508Z,102810.47
2023-04-17T14:41:42.375Z,102801.75
2023-04-17T14:44:08.958Z,102811.25
2023-04-17T14:46:35.672Z,102812.22
2023-04-17T14:49:02.392Z,102793.91
2023-04-17T14:51:30.426Z,102798.03
2023-04-17T14:53:57.228Z,102799.47
2023-04-17T14:56:23.828Z,102801.84
2023-04-17T14:58:50.360Z,102798.59
2023-04-17T15:01:16.918Z,102798.53
2023-04-17T15:03:47.443Z,102795.84
2023-04-17T15:06:14.762Z,102797.22
2023-04-17T15:08:41.630Z,102797.63
2023-04-17T15:11:08.708Z,102791.84
2023-04-17T15:13:35.836Z,102797.19
2023-04-17T15:16:02.788Z,102786.06
2023-04-17T15:18:29.298Z,102792.38
2023-04-17T15:20:56.125Z,102792.69
2023-04-17T15:23:22.878Z,102793.13
2023-04-17T15:25:49.447Z,102799.56
2023-04-17T15:28:16.074Z,102795.41
2023-04-17T15:30:42.762Z,102797.34
2023-04-17T15:33:10.357Z,102795.09
2023-04-17T15:35:37.443Z,102794.28
2023-04-17T15:38:05.565Z,102795.81
2023-04-17T15:40:32.009Z,102798.50
2023-04-17T15:42:58.429Z,102793.34
2023-04-17T15:45:26.202Z,102794.66
2023-04-17T15:47:53.605Z,102788.81
2023-04-17T15:50:21.348Z,102785.75
2023-04-17T15:52:48.170Z,102784.06
2023-04-17T15:55:15.078Z,102793.41
2023-04-17T15:57:43.156Z,102791.31
2023-04-17T16:00:10.564Z,102791.78
2023-04-17T16:02:37.186Z,102796.13
2023-04-17T16:05:04.350Z,102792.44
2023-04-17T16:07:31.838Z,102787.22
2023-04-17T16:09:58.478Z,102780.56
2023-04-17T16:12:24.917Z,102776.34
2023-04-17T16:14:51.416Z,102781.47
2023-04-17T16:17:18.138Z,102780.56
2023-04-17T16:19:44.669Z,102778.63
2023-04-17T16:22:11.136Z,102779.00
2023-04-17T16:24:37.572Z,102779.44
2023-04-17T16:27:06.290Z,102780.88
2023-04-17T16:29:32.775Z,102781.28
2023-04-17T16:31:59.604Z,102772.22
2023-04-17T16:34:26.182Z,102779.94
2023-04-17T16:36:52.667Z,102785.06
2023-04-17T16:39:19.173Z,102780.00
2023-04-17T16:41:45.617Z,102772.34
2023-04-17T16:44:12.179Z,102780.00
2023-04-17T16:49:10.100Z,102782.00
2023-04-17T16:51:38.285Z,102775.19
2023-04-17T16:54:04.949Z,102775.22
2023-04-17T16:56:31.431Z,102767.94
2023-04-17T16:58:57.888Z,102779.94
2023-04-17T17:01:24.379Z,102780.13
2023-04-17T17:03:51.077Z,102774.31
2023-04-17T17:06:17.773Z,102771.97
2023-04-17T17:08:46.770Z,102775.44
2023-04-17T17:11:15.025Z,102776.44
2023-04-17T17:13:41.470Z,102781.22
2023-04-17T17:16:08.084Z,102787.69
2023-04-17T17:18:34.530Z,102784.19
2023-04-17T17:21:01.917Z,102783.34
2023-04-17T17:23:28.478Z,102781.44
2023-04-17T17:25:54.931Z,102779.78
2023-04-17T17:28:21.816Z,102785.31
2023-04-17T17:30:48.539Z,102788.00
2023-04-17T17:33:15.074Z,102785.69
2023-04-17T17:35:41.530Z,102777.94
2023-04-17T17:38:07.942Z,102779.94
2023-04-17T17:40:34.408Z,102774.81
2023-04-17T17:43:01.468Z,102781.03
2023-04-17T17:45:27.962Z,102777.75
2023-04-17T17:47:54.484Z,102782.22
2023-04-17T17:50:21.045Z,102785.81
2023-04-17T17:52:52.296Z,102777.34
2023-04-17T17:55:19.058Z,102785.50
2023-04-17T17:57:49.223Z,102783.28
2023-04-17T18:00:16.659Z,102782.75
2023-04-17T18:02:43.347Z,102781.94
2023-04-17T18:05:10.141Z,102778.53
2023-04-17T18:07:36.701Z,102777.78
2023-04-17T18:10:03.733Z,102783.28
2023-04-17T18:12:30.274Z,102778.34
2023-04-17T18:14:56.813Z,102786.38
2023-04-17T18:17:23.274Z,102789.19
2023-04-17T18:19:49.771Z,102791.19
2023-04-17T18:22:16.362Z,102787.03
2023-04-17T18:24:45.881Z,102794.22
2023-04-17T18:27:12.468Z,102799.84
2023-04-17T18:29:38.976Z,102806.22
2023-04-17T18:32:05.418Z,102802.13
2023-04-17T18:34:31.874Z,102803.34
2023-04-17T18:37:00.238Z,102805.38
2023-04-17T18:39:26.741Z,102802.28
2023-04-17T18:41:53.305Z,102803.44
2023-04-17T18:44:20.518Z,102804.41
2023-04-17T18:46:50.842Z,102814.31
2023-04-17T18:49:17.320Z,102817.22
2023-04-17T18:51:50.300Z,102826.00
2023-04-17T18:54:18.024Z,102821.88
2023-04-17T18:56:44.828Z,102820.38
2023-04-17T18:59:12.065Z,102825.72
2023-04-17T19:01:38.750Z,102825.91
2023-04-17T19:04:05.294Z,102825.28
2023-04-17T19:06:31.859Z,102826.28
2023-04-17T19:08:58.414Z,102827.38
2023-04-17T19:11:28.188Z,102830.88
2023-04-17T19:13:54.715Z,102833.47
2023-04-17T19:16:21.290Z,102833.78
2023-04-17T19:18:47.758Z,102839.13
2023-04-17T19:21:16.032Z,102841.88
2023-04-17T19:23:42.861Z,102844.56
2023-04-17T19:26:09.725Z,102849.09
2023-04-17T19:28:36.340Z,102849.22
2023-04-17T19:31:03.150Z,102843.28
2023-04-17T19:33:31.996Z,102848.63
2023-04-17T19:35:59.183Z,102850.38
2023-04-17T19:38:26.028Z,102852.16
2023-04-17T19:41:15.216Z,102852.31
2023-04-17T19:43:42.534Z,102846.34
2023-04-17T19:46:09.403Z,102849.22
2023-04-17T19:48:36.816Z,102849.25
2023-04-17T19:51:07.074Z,102853.81
2023-04-17T19:53:39.397Z,102849.53
2023-04-17T19:56:08.980Z,102854.00
2023-04-17T19:58:36.476Z,102850.59
2023-04-17T20:01:03.093Z,102852.47
2023-04-17T20:03:30.737Z,102857.72
2023-04-17T20:05:58.175Z,102853.53
2023-04-17T20:08:25.609Z,102851.00
2023-04-17T20:10:52.271Z,102851.13
2023-04-17T20:13:18.841Z,102856.44
2023-04-17T20:15:45.371Z,102853.06
2023-04-17T20:18:11.888Z,102861.91
2023-04-17T20:20:43.085Z,102863.66
2023-04-17T20:23:09.609Z,102865.53
2023-04-17T20:25:36.208Z,102864.72
2023-04-17T20:28:02.933Z,102864.81
2023-04-17T20:30:30.357Z,102863.22
2023-04-17T20:32:57.156Z,102859.91
2023-04-17T20:35:24.639Z,102866.09
2023-04-17T20:37:52.002Z,102863.56
2023-04-17T20:40:19.022Z,102865.50
2023-04-17T20:42:46.666Z,102861.28
2023-04-17T20:45:13.406Z,102860.50
2023-04-17T20:47:55.405Z,102858.84
2023-04-17T20:50:23.476Z,102864.13
2023-04-17T20:52:50.083Z,102865.97
2023-04-17T20:55:18.915Z,102866.97
2023-04-17T20:57:45.994Z,102862.66
2023-04-17T21:00:13.261Z,102861.00
2023-04-17T21:02:40.035Z,102859.34
2023-04-17T21:05:07.618Z,102855.97
2023-04-17T21:07:34.130Z,102859.53
2023-04-17T21:10:00.581Z,102861.31
2023-04-17T21:12:27.110Z,102864.00
2023-04-17T21:14:53.557Z,102863.19
2023-04-17T21:17:20.041Z,102859.81
2023-04-17T21:19:47.254Z,102853.88
2023-04-17T21:22:13.745Z,102857.47
2023-04-17T21:24:40.276Z,102855.78
2023-04-17T21:27:06.743Z,102852.44
2023-04-17T21:29:33.182Z,102857.72
2023-04-17T21:31:59.781Z,102851.69
2023-04-17T21:34:26.443Z,102856.09
2023-04-17T21:36:56.561Z,102858.75
2023-04-17T21:39:23.029Z,102853.56
2023-04-17T21:41:49.446Z,102856.22
2023-04-17T21:44:16.096Z,102853.78
2023-04-17T21:46:46.204Z,102862.53
2023-04-17T21:49:12.872Z,102863.44
2023-04-17T21:51:39.707Z,102860.88
2023-04-17T21:54:06.297Z,102860.09
2023-04-17T21:56:32.831Z,102863.66
2023-04-17T21:58:59.286Z,102861.13
2023-04-17T22:01:25.775Z,102861.16
2023-04-17T22:03:52.404Z,102868.13
2023-04-17T22:06:18.942Z,102865.69
2023-04-17T22:08:45.486Z,102873.63
2023-04-17T22:11:12.049Z,102864.94
2023-04-17T22:13:38.576Z,102868.47
2023-04-17T22:16:05.310Z,102866.78
2023-04-17T22:18:31.882Z,102864.28
2023-04-17T22:20:58.355Z,102868.69
2023-04-17T22:23:24.809Z,102864.41
2023-04-17T22:25:51.335Z,102859.28
2023-04-17T22:28:17.866Z,102868.84
2023-04-17T22:30:45.130Z,102866.25
2023-04-17T22:33:11.694Z,102866.41
2023-04-17T22:35:38.232Z,102867.31
2023-04-17T22:38:04.672Z,102873.31
2023-04-17T22:40:31.205Z,102877.72
2023-04-17T22:42:58.057Z,102876.88
2023-04-17T22:45:24.553Z,102877.78
2023-04-17T22:47:51.081Z,102871.72
2023-04-17T22:50:17.728Z,102878.72
2023-04-17T22:52:45.146Z,102871.81
2023-04-17T22:55:11.693Z,102878.78
2023-04-17T22:57:38.163Z,102877.13
2023-04-17T23:00:06.432Z,102872.88
2023-04-17T23:02:33.039Z,102872.03
2023-04-17T23:04:59.641Z,102877.28
2023-04-17T23:07:26.241Z,102877.31
2023-04-17T23:09:52.696Z,102878.28
2023-04-17T23:12:19.964Z,102878.28
2023-04-17T23:14:49.854Z,102875.72
2023-04-17T23:17:16.368Z,102878.38
2023-04-17T23:19:42.918Z,102870.66
2023-04-17T23:22:09.865Z,102881.06
2023-04-17T23:24:36.395Z,102882.88
2023-04-17T23:27:02.871Z,102876.00
2023-04-17T23:29:29.314Z,102883.91
2023-04-17T23:31:55.830Z,102878.75
2023-04-17T23:34:22.483Z,102881.38
2023-04-17T23:36:49.745Z,102888.34
2023-04-17T23:39:16.157Z,102885.78
2023-04-17T23:41:42.776Z,102885.88
2023-04-17T23:44:09.828Z,102890.22
2023-04-17T23:46:36.670Z,102890.31
2023-04-17T23:49:03.549Z,102886.88
2023-04-17T23:51:30.381Z,102890.47
2023-04-17T23:54:01.077Z,102890.50
2023-04-17T23:56:29.999Z,102887.09
2023-04-17T23:58:57.203Z,102883.72
